Aeroporto :
LOGIN :

Iscrizione | Disclaimer

   EN    FR    IT 

 










Sommario :    VFR   VFR Marginale   IFR   IFR Intensivo   IFR Molto Intensivo
Visibilità : 
Base nubi : 
>= 8 km
>= 3000ft
5 / 8 km
1000 / 3000 ft
1500m / 5 km
500 / 1000 ft
800 / 1500m
200 / 500 ft
< 800m
< 200 ft
Simboli :   Temporali  Nebbia  Neve Forte  Precipitazioni Forti  Vento > 20 kt
SIGMETs :   Varie  Temporali  Ghiacco  Turbolenza  Onda orograficha  Ceneri Vulcaniche






- Altitudine del aeroporto : 31 ft
- Codice IATA : INV


EGPE - Inverness

ULTIMO METAR :
  • 311920Z AUTO 21023KT 9999 FEW046/// 09/06 Q0985

METARs OBSOLETI :
  • 311850Z AUTO 21024G35KT 9999 -RA FEW021/// SCT034/// BKN043/// 09/06 Q0984
  • 311820Z AUTO 21023KT 9999 SCT040/// 09/06 Q0983
  • 311750Z AUTO 21027G39KT 9999 FEW032/// SCT040/// 09/07 Q0982
  • 311720Z AUTO 21033G46KT 9999 -RA FEW026/// SCT034/// BKN042/// 10/07 Q0980
  • 311650Z 21033G45KT 9999 FEW030 SCT040 11/07 Q0978

TAF TAF EGPE
Valido dal 31 a 18 ore il 01 a 03 ore UTC


311706Z 3118/0103 20020G30KT 9999 SCT025 BKN040
PROB40
TEMPO 3118/3124 21030G48KT
PROB40
TEMPO 3118/3124 6000 RA
ATIS : +44 1667 464 255



MetMap, La meteo Aeronautica in un colpo d'occhio ! - Copyright ORBIFLY Dicembre 2007 - Disclaimer

ORBIFLY MET'MAP TEAM :

Programmazione e sviluppo : Alexandra Zaïnal
Concezione : Baudouin d'Aumeries
Aiuto per la programmazione : Marc-Olivier Méhu
Supporto tecnico e logistico : Manuel Goepfert
Aiuto per la traduzione : Arnaldo La Scala

Contatto : metmap@orbifly.com




FONTI E CREDITI :

   NOAA